Lawrence Township, New Jersey
Current Conditions -  °F | °C
As of 2:53 PM on Monday 22 Dec 2014 (Local Time) from KTTN Reporting Station
Haze Haze  
Wind Chill: 35°   Ceiling: 700
Heat Index: 39°   Visibility: 3mi
Dew Point: 35°   Wind: 6mph
Humidity: 86%   Direction: 50°NE
Pressure: 30.21"   Gusts: NA
Location:  40.28°N, 74.72°W
Report Text: KTTN 221953Z 05005KT 3SM BR OVC007 04/02 A3021 RMK AO2 SLP226 T00390017
Loading
Personal Weather Stations






























Interactive Weather Map New forecast layout! Learn more

10-Day Weather Forecast

Advertisements
Track Severe Weather on mobile